Time;durP1;ratioP1;P1;durP2;ratioP2;P2;SDS_P1;SDS_P2;PMS_P1;PMS_P2;Temp;Humidity;BMP_temperature;BMP_pressure;BME280_temperature;BME280_humidity;BME280_pressure;Samples;Min_cycle;Max_cycle;Signal;HPM_P1;HPM_P2
2021/08/18 00:02:16;;;;;;;3.20;2.43;;;15.00;99.90;14.20;96998.00;;;;5064328;28;20646;-65
2021/08/18 00:05:07;;;;;;;6.10;2.10;;;14.80;99.90;14.30;96991.00;;;;5064693;28;20207;-66
2021/08/18 00:07:56;;;;;;;3.40;2.87;;;14.70;99.90;14.20;96980.00;;;;5063998;28;20202;-66
2021/08/18 00:10:45;;;;;;;7.33;2.23;;;14.70;99.90;14.40;96984.00;;;;5065222;28;20196;-66
2021/08/18 00:13:34;;;;;;;4.07;2.60;;;14.60;99.90;14.50;96979.00;;;;5064141;28;20200;-66
2021/08/18 00:16:26;;;;;;;3.67;1.97;;;14.70;99.90;14.50;96969.00;;;;5063340;28;20691;-66
2021/08/18 00:19:16;;;;;;;6.97;2.20;;;14.70;99.90;14.60;96972.00;;;;5064945;28;20223;-66
2021/08/18 00:22:06;;;;;;;3.97;2.60;;;14.70;99.90;14.60;96981.00;;;;5068183;28;20238;-66
2021/08/18 00:24:54;;;;;;;2.87;1.83;;;14.70;99.90;14.60;96981.00;;;;5067633;28;20207;-66
2021/08/18 00:27:43;;;;;;;3.30;2.50;;;14.80;99.90;14.60;96983.00;;;;5067379;28;20218;-66
2021/08/18 00:30:32;;;;;;;4.83;2.20;;;14.80;99.90;14.40;96985.00;;;;5066984;28;20196;-64
2021/08/18 00:33:21;;;;;;;4.83;3.30;;;14.80;99.90;14.10;96992.00;;;;5067619;28;20200;-66
2021/08/18 00:36:11;;;;;;;2.73;2.17;;;14.70;99.90;13.90;96991.00;;;;5067762;28;20203;-67
2021/08/18 00:39:00;;;;;;;2.70;1.80;;;14.60;99.90;13.80;96986.00;;;;5067761;28;20220;-64
2021/08/18 00:41:49;;;;;;;4.80;4.00;;;14.50;99.90;14.00;96987.00;;;;5067580;28;20686;-65
2021/08/18 00:44:38;;;;;;;2.50;2.30;;;14.40;99.90;14.20;96986.00;;;;5067607;28;20573;-65
2021/08/18 00:47:27;;;;;;;5.33;3.20;;;14.40;99.90;14.20;96986.00;;;;5068147;28;20199;-64
2021/08/18 00:50:20;;;;;;;5.63;2.80;;;14.40;99.90;14.10;96980.00;;;;5069893;28;20204;-66
2021/08/18 00:53:11;;;;;;;4.20;2.67;;;14.40;99.90;14.10;96978.00;;;;5066149;28;20211;-65
2021/08/18 00:56:00;;;;;;;2.83;2.00;;;14.40;99.90;14.20;96972.00;;;;5066735;28;20218;-64
2021/08/18 00:58:48;;;;;;;3.63;2.23;;;14.40;99.90;14.30;96977.00;;;;5068964;28;20212;-65
2021/08/18 01:01:38;;;;;;;3.60;2.10;;;14.40;99.90;14.20;96975.00;;;;5067594;28;20231;-66
2021/08/18 01:04:27;;;;;;;5.03;2.60;;;14.40;99.90;14.20;96971.00;;;;5067041;28;20207;-66
2021/08/18 01:07:16;;;;;;;4.83;4.27;;;14.40;99.90;14.10;96966.00;;;;5067007;28;20192;-65
2021/08/18 01:10:11;;;;;;;2.93;2.13;;;14.40;99.90;14.10;96964.00;;;;5067841;28;20199;-66
2021/08/18 01:13:02;;;;;;;3.10;2.13;;;14.40;99.90;14.00;96959.00;;;;5067660;28;20204;-64
2021/08/18 01:15:51;;;;;;;3.13;2.53;;;14.40;99.90;13.80;96951.00;;;;5066664;28;20199;-66
2021/08/18 01:18:40;;;;;;;4.00;2.67;;;14.30;99.90;13.70;96959.00;;;;5067458;28;20224;-64
2021/08/18 01:21:30;;;;;;;5.80;3.03;;;14.20;99.90;13.90;96960.00;;;;5066753;28;20216;-65
2021/08/18 01:24:20;;;;;;;4.80;2.30;;;14.20;99.90;14.00;96960.00;;;;5067233;28;20229;-65
2021/08/18 01:27:10;;;;;;;4.10;2.20;;;14.20;99.90;14.00;96970.00;;;;5066720;28;20204;-66
2021/08/18 01:30:01;;;;;;;5.30;2.90;;;14.20;99.90;13.80;96963.00;;;;5067388;28;20546;-66
2021/08/18 01:32:54;;;;;;;2.60;2.00;;;14.20;99.90;13.80;96963.00;;;;5066706;28;20219;-65
2021/08/18 01:35:45;;;;;;;7.27;2.73;;;14.20;99.90;13.60;96973.00;;;;5066884;28;20200;-66
2021/08/18 01:38:34;;;;;;;3.07;2.13;;;14.10;99.90;13.60;96967.00;;;;5066010;28;20220;-66
2021/08/18 01:41:23;;;;;;;4.00;2.10;;;14.10;99.90;13.70;96958.00;;;;5064752;28;20216;-65
2021/08/18 01:44:12;;;;;;;3.83;2.90;;;14.00;99.90;13.90;96952.00;;;;5046715;28;20197;-65
2021/08/18 01:47:02;;;;;;;4.93;2.40;;;14.00;99.90;13.90;96957.00;;;;5046478;28;20432;-66
2021/08/18 01:49:51;;;;;;;3.57;1.80;;;14.10;99.90;13.90;96949.00;;;;5045964;28;20203;-66
2021/08/18 01:52:41;;;;;;;3.17;2.23;;;14.10;99.90;14.00;96960.00;;;;5045454;28;20466;-65
2021/08/18 01:55:30;;;;;;;5.60;2.33;;;14.10;99.90;14.00;96962.00;;;;5046575;28;20219;-66
2021/08/18 01:58:19;;;;;;;7.63;2.67;;;14.20;99.90;13.90;96956.00;;;;5047003;28;20225;-64
2021/08/18 02:01:12;;;;;;;5.07;2.40;;;14.20;99.90;13.80;96953.00;;;;5047014;28;20721;-66
2021/08/18 02:04:03;;;;;;;6.47;2.50;;;14.20;99.90;13.70;96946.00;;;;5046211;28;20395;-66
2021/08/18 02:06:52;;;;;;;3.07;2.57;;;14.10;99.90;13.60;96945.00;;;;5046783;28;20695;-65
2021/08/18 02:09:41;;;;;;;2.77;2.30;;;14.10;99.90;13.70;96942.00;;;;5048174;28;20224;-66
2021/08/18 02:12:30;;;;;;;2.90;2.10;;;14.10;99.90;13.80;96949.00;;;;5045120;28;20217;-65
2021/08/18 02:15:22;;;;;;;7.77;2.83;;;14.10;99.90;13.60;96943.00;;;;5046261;28;20201;-65
2021/08/18 02:18:14;;;;;;;2.30;2.10;;;14.00;99.90;13.50;96953.00;;;;5046542;28;20201;-66
2021/08/18 02:21:05;;;;;;;3.03;2.37;;;14.00;99.90;13.50;96947.00;;;;5046256;28;20508;-65
2021/08/18 02:23:54;;;;;;;4.57;2.70;;;13.90;99.90;13.60;96942.00;;;;5045715;28;20200;-64
2021/08/18 02:26:43;;;;;;;2.50;2.00;;;13.90;99.90;13.60;96934.00;;;;5046026;28;20204;-65
2021/08/18 02:29:31;;;;;;;3.73;2.30;;;13.90;99.90;13.30;96940.00;;;;5046151;28;20192;-66
2021/08/18 02:32:20;;;;;;;2.93;2.23;;;13.80;99.90;13.20;96951.00;;;;5045841;28;20237;-65
2021/08/18 02:35:11;;;;;;;5.23;3.00;;;13.80;99.90;13.40;96946.00;;;;5045687;28;20221;-65
2021/08/18 02:38:04;;;;;;;2.73;1.93;;;13.70;99.90;13.20;96947.00;;;;5045935;28;20201;-66
2021/08/18 02:40:52;;;;;;;2.80;2.13;;;13.70;99.90;13.20;96958.00;;;;5044981;28;20224;-66
2021/08/18 02:43:41;;;;;;;3.77;2.43;;;13.60;99.90;13.20;96951.00;;;;5045184;28;20322;-65
2021/08/18 02:46:30;;;;;;;3.97;2.47;;;13.60;99.90;13.30;96948.00;;;;5046049;28;20200;-66
2021/08/18 02:49:19;;;;;;;3.87;2.03;;;13.60;99.90;13.40;96929.00;;;;5047054;28;20200;-66
2021/08/18 02:52:09;;;;;;;2.90;2.30;;;13.60;99.90;13.50;96935.00;;;;5045412;28;20272;-66
2021/08/18 02:54:59;;;;;;;4.00;2.53;;;13.70;99.90;13.60;96933.00;;;;5046067;28;20212;-65
2021/08/18 02:57:48;;;;;;;3.57;2.73;;;13.70;99.90;13.60;96927.00;;;;5045675;28;20207;-65
2021/08/18 03:00:37;;;;;;;3.67;2.17;;;13.80;99.90;13.60;96934.00;;;;5045499;28;20733;-66
2021/08/18 03:03:26;;;;;;;3.10;2.27;;;13.80;99.90;13.60;96930.00;;;;5046167;28;20678;-66
2021/08/18 03:06:15;;;;;;;3.47;2.50;;;13.80;99.90;13.40;96930.00;;;;5046580;28;20200;-67
2021/08/18 03:09:04;;;;;;;3.90;2.53;;;13.80;99.90;13.20;96927.00;;;;5045676;28;20239;-65
2021/08/18 03:11:55;;;;;;;3.90;3.00;;;13.80;99.90;13.10;96928.00;;;;5046277;28;20216;-64
2021/08/18 03:14:44;;;;;;;3.17;2.57;;;13.70;99.90;13.30;96932.00;;;;5045461;28;20201;-66
2021/08/18 03:17:33;;;;;;;2.53;2.33;;;13.60;99.90;13.30;96938.00;;;;5045455;28;20231;-66
2021/08/18 03:20:22;;;;;;;2.70;2.07;;;13.60;99.90;13.20;96927.00;;;;5046472;28;20228;-66
2021/08/18 03:23:11;;;;;;;3.50;2.80;;;13.60;99.90;13.10;96931.00;;;;5044190;28;20224;-65
2021/08/18 03:26:00;;;;;;;5.83;2.47;;;13.60;99.90;13.20;96934.00;;;;5044585;28;20200;-65
2021/08/18 03:28:51;;;;;;;4.40;2.40;;;13.50;99.90;13.40;96934.00;;;;5045255;28;20266;-66
2021/08/18 03:31:40;;;;;;;2.30;2.07;;;13.60;99.90;13.40;96940.00;;;;5045217;28;20216;-66
2021/08/18 03:34:29;;;;;;;4.17;2.17;;;13.60;99.90;13.50;96940.00;;;;5045307;28;20215;-66
2021/08/18 03:37:18;;;;;;;2.57;2.00;;;13.60;99.90;13.50;96939.00;;;;5045295;28;20698;-66
2021/08/18 03:40:08;;;;;;;6.70;2.87;;;13.70;99.90;13.50;96932.00;;;;5046214;28;20232;-66
2021/08/18 03:42:57;;;;;;;4.37;2.87;;;13.70;99.90;13.30;96940.00;;;;5073821;28;20203;-66
2021/08/18 03:45:48;;;;;;;10.63;3.27;;;13.70;99.90;13.20;96933.00;;;;5073249;28;20701;-66
2021/08/18 03:48:37;;;;;;;5.80;2.80;;;13.70;99.90;13.20;96945.00;;;;5062480;28;20220;-65
2021/08/18 03:51:26;;;;;;;4.10;2.33;;;13.60;99.90;13.40;96955.00;;;;5064919;28;20216;-66
2021/08/18 03:54:15;;;;;;;3.03;2.50;;;13.60;99.90;13.10;96959.00;;;;5064235;28;20204;-65
2021/08/18 03:57:05;;;;;;;3.47;2.20;;;13.60;99.90;12.90;96955.00;;;;5067782;28;20694;-65
2021/08/18 03:59:53;;;;;;;3.13;2.20;;;13.60;99.90;12.70;96965.00;;;;5069067;28;20808;-66
2021/08/18 04:02:44;;;;;;;4.73;2.60;;;13.40;99.90;12.90;96966.00;;;;5066416;28;20547;-66
2021/08/18 04:05:33;;;;;;;4.37;2.37;;;13.40;99.90;12.90;96966.00;;;;5068155;28;20226;-66
2021/08/18 04:08:22;;;;;;;3.60;2.40;;;13.30;99.90;13.00;96961.00;;;;5072527;28;20228;-66
2021/08/18 04:11:11;;;;;;;3.47;2.40;;;13.30;99.90;13.20;96967.00;;;;5088593;28;20261;-66
2021/08/18 04:14:00;;;;;;;2.70;2.47;;;13.30;99.90;13.30;96971.00;;;;5088314;28;20199;-66
2021/08/18 04:16:49;;;;;;;3.87;3.13;;;13.40;99.90;13.30;96970.00;;;;5087834;28;20221;-66
2021/08/18 04:19:39;;;;;;;3.90;2.17;;;13.50;99.90;13.30;96972.00;;;;5087738;28;20231;-66
2021/08/18 04:22:28;;;;;;;3.47;2.50;;;13.50;99.90;13.30;96978.00;;;;5086458;28;20218;-67
2021/08/18 04:25:19;;;;;;;2.67;2.20;;;13.60;99.90;13.20;96976.00;;;;5087310;28;20223;-66
2021/08/18 04:28:08;;;;;;;4.97;2.23;;;13.60;99.90;13.00;96985.00;;;;5088633;28;20199;-66
2021/08/18 04:30:57;;;;;;;3.77;2.30;;;13.50;99.90;13.00;96979.00;;;;5076956;28;20604;-65
2021/08/18 04:33:46;;;;;;;2.40;2.17;;;13.50;99.90;12.80;96991.00;;;;5067972;28;20766;-64
2021/08/18 04:36:36;;;;;;;3.47;2.37;;;13.40;99.90;12.70;96981.00;;;;5067657;28;20211;-66
2021/08/18 04:39:25;;;;;;;4.03;2.97;;;13.40;99.90;12.90;96988.00;;;;5068860;28;20196;-65
2021/08/18 04:42:14;;;;;;;4.23;2.20;;;13.30;99.90;12.90;96992.00;;;;5074166;28;20535;-64
2021/08/18 04:45:03;;;;;;;2.83;2.50;;;13.30;99.90;12.80;96987.00;;;;5088255;28;20237;-66
2021/08/18 04:47:52;;;;;;;2.60;2.40;;;13.30;99.90;12.90;96986.00;;;;5066397;28;20210;-66
2021/08/18 04:50:41;;;;;;;2.70;2.50;;;13.30;99.90;13.00;96996.00;;;;5066752;28;20212;-66
2021/08/18 04:53:32;;;;;;;10.20;3.97;;;13.30;99.90;13.10;97004.00;;;;5072037;28;20671;-66
2021/08/18 04:56:20;;;;;;;6.43;2.87;;;13.30;99.90;13.00;97012.00;;;;5072935;28;20507;-65
2021/08/18 04:59:10;;;;;;;5.23;2.97;;;13.40;99.90;13.20;97006.00;;;;5067082;28;20624;-66
2021/08/18 05:01:58;;;;;;;3.13;2.67;;;13.40;99.90;13.30;97013.00;;;;5067587;28;20329;-66
2021/08/18 05:04:47;;;;;;;4.20;2.83;;;13.50;99.90;13.30;97021.00;;;;5067439;28;20218;-66
2021/08/18 05:07:36;;;;;;;3.50;2.77;;;13.50;99.90;13.20;97011.00;;;;5068482;28;20208;-66
2021/08/18 05:10:27;;;;;;;6.03;2.27;;;13.60;99.90;13.00;97021.00;;;;5086753;28;20191;-66
2021/08/18 05:13:16;;;;;;;8.23;2.60;;;13.50;99.90;13.20;97030.00;;;;5068353;28;20203;-66
2021/08/18 05:16:05;;;;;;;4.27;2.90;;;13.50;99.90;13.30;97033.00;;;;5068089;28;20208;-64
2021/08/18 05:18:54;;;;;;;3.10;2.47;;;13.50;99.90;13.20;97028.00;;;;5087249;28;20211;-65
2021/08/18 05:21:44;;;;;;;2.83;2.43;;;13.50;99.90;13.30;97032.00;;;;5067039;28;20471;-65
2021/08/18 05:24:33;;;;;;;5.07;3.17;;;13.50;99.90;13.40;97028.00;;;;5086238;28;20694;-65
2021/08/18 05:27:23;;;;;;;3.17;2.63;;;13.50;99.90;13.30;97027.00;;;;5086806;28;20218;-65
2021/08/18 05:30:14;;;;;;;5.37;2.70;;;13.60;99.90;13.40;97036.00;;;;5086325;28;20218;-65
2021/08/18 05:33:04;;;;;;;5.23;2.77;;;13.60;99.90;13.50;97037.00;;;;5086734;28;20218;-65
2021/08/18 05:35:53;;;;;;;5.70;3.90;;;13.70;99.90;13.50;97033.00;;;;5067327;28;20591;-65
2021/08/18 05:38:41;;;;;;;5.77;3.03;;;13.70;99.90;13.40;97030.00;;;;5067476;28;20215;-64
2021/08/18 05:41:30;;;;;;;3.00;2.73;;;13.70;99.90;13.60;97026.00;;;;5085708;28;20226;-66
2021/08/18 05:44:21;;;;;;;5.80;2.83;;;13.80;99.90;13.80;97021.00;;;;5083254;28;20251;-65
2021/08/18 05:47:10;;;;;;;3.97;2.70;;;13.90;99.90;13.80;97025.00;;;;5068407;28;20203;-65
2021/08/18 05:49:59;;;;;;;3.57;2.70;;;13.90;99.90;14.00;97031.00;;;;5085228;28;20218;-65
2021/08/18 05:52:48;;;;;;;7.93;2.63;;;14.10;99.90;13.70;97031.00;;;;5071060;28;20230;-66
2021/08/18 05:55:37;;;;;;;3.03;2.73;;;14.10;99.90;13.60;97027.00;;;;5086298;28;20203;-64
2021/08/18 05:58:26;;;;;;;8.33;3.37;;;14.10;99.90;13.60;97021.00;;;;5078100;28;20708;-65
2021/08/18 06:01:17;;;;;;;3.17;2.70;;;14.10;99.90;13.50;97016.00;;;;5081336;28;20216;-65
2021/08/18 06:04:06;;;;;;;4.60;2.57;;;14.10;99.90;13.60;97016.00;;;;5078216;28;20211;-66
2021/08/18 06:06:56;;;;;;;4.03;2.83;;;14.00;99.90;13.60;97012.00;;;;5076199;28;20225;-65
2021/08/18 06:09:46;;;;;;;4.23;3.10;;;14.00;99.90;13.60;97014.00;;;;5050448;28;20726;-65
2021/08/18 06:12:35;;;;;;;3.83;2.90;;;14.00;99.90;13.70;97009.00;;;;5060855;28;20709;-65
2021/08/18 06:15:24;;;;;;;3.90;2.80;;;14.00;99.90;13.80;97004.00;;;;5055210;28;20204;-65
2021/08/18 06:18:15;;;;;;;3.73;2.13;;;14.00;99.90;13.80;97009.00;;;;5063422;28;20207;-65
2021/08/18 06:21:03;;;;;;;3.93;2.80;;;14.10;99.90;13.70;96998.00;;;;5049464;28;20220;-64
2021/08/18 06:23:54;;;;;;;3.07;2.10;;;14.00;99.90;13.80;97003.00;;;;5055973;28;20561;-65
2021/08/18 06:26:43;;;;;;;3.70;2.63;;;14.10;99.90;13.90;97006.00;;;;5050824;28;20208;-65
2021/08/18 06:29:34;;;;;;;5.80;2.50;;;14.10;99.90;14.00;97003.00;;;;5055999;28;20228;-65
2021/08/18 06:32:23;;;;;;;4.03;2.37;;;14.20;99.90;14.10;97008.00;;;;5073638;28;20788;-66
2021/08/18 06:35:14;;;;;;;4.33;3.00;;;14.30;99.90;14.00;97001.00;;;;5081550;28;20203;-65
2021/08/18 06:38:03;;;;;;;3.43;3.13;;;14.40;99.90;14.10;97011.00;;;;5077247;28;20196;-65
2021/08/18 06:40:51;;;;;;;3.07;2.77;;;14.40;99.90;14.20;97012.00;;;;5075901;28;20218;-65
2021/08/18 06:43:40;;;;;;;3.13;2.10;;;14.40;99.90;14.50;97017.00;;;;5074756;28;20202;-65
2021/08/18 06:46:29;;;;;;;7.30;3.47;;;14.50;99.90;14.70;97020.00;;;;5073095;28;20751;-66
2021/08/18 06:49:18;;;;;;;3.60;3.10;;;14.60;99.90;14.90;97013.00;;;;5078818;28;20784;-64
2021/08/18 06:52:09;;;;;;;6.97;3.77;;;14.70;99.90;14.90;97011.00;;;;5078394;28;20219;-66
2021/08/18 06:54:58;;;;;;;4.60;2.53;;;14.90;99.90;15.10;97025.00;;;;5077624;28;20203;-65
2021/08/18 06:57:47;;;;;;;4.27;3.00;;;15.00;99.90;15.20;97010.00;;;;5071050;28;20322;-65
2021/08/18 07:00:36;;;;;;;5.83;2.97;;;15.10;99.90;15.40;97017.00;;;;5070236;28;20689;-65
2021/08/18 07:03:25;;;;;;;4.97;2.97;;;15.20;99.90;15.40;97015.00;;;;5075153;28;20263;-68
2021/08/18 07:06:14;;;;;;;7.87;3.37;;;15.40;99.90;15.50;97014.00;;;;5075186;28;20704;-65
2021/08/18 07:09:04;;;;;;;6.43;3.30;;;15.50;99.90;15.60;97014.00;;;;5076910;28;20214;-65
2021/08/18 07:11:53;;;;;;;6.47;3.73;;;15.60;99.90;15.60;97016.00;;;;5075975;28;20231;-66
2021/08/18 07:14:42;;;;;;;8.50;3.17;;;15.70;99.90;15.70;97016.00;;;;5055563;28;20215;-66
2021/08/18 07:17:31;;;;;;;9.40;4.07;;;15.80;99.90;15.80;97015.00;;;;5074897;28;20207;-65
2021/08/18 07:20:20;;;;;;;5.97;3.40;;;15.90;99.90;15.80;97002.00;;;;5077395;28;20211;-65
2021/08/18 07:23:09;;;;;;;7.23;3.20;;;15.90;99.90;16.10;97001.00;;;;5061033;28;20211;-65
2021/08/18 07:26:00;;;;;;;8.57;3.57;;;16.00;99.90;16.40;97016.00;;;;5056435;28;20204;-65
2021/08/18 07:28:49;;;;;;;8.73;4.40;;;16.20;99.90;16.30;97013.00;;;;5059129;28;20196;-65
2021/08/18 07:31:38;;;;;;;5.87;3.73;;;16.30;99.90;16.30;97018.00;;;;5063010;28;20729;-64
2021/08/18 07:34:26;;;;;;;5.03;3.20;;;16.40;99.90;16.60;97020.00;;;;5056430;28;20355;-67
2021/08/18 07:37:17;;;;;;;4.90;3.33;;;16.50;99.90;16.70;97024.00;;;;5060789;28;20230;-67
2021/08/18 07:40:07;;;;;;;12.20;4.47;;;16.60;99.90;16.60;97021.00;;;;5062873;28;20204;-67
2021/08/18 07:42:59;;;;;;;10.27;3.43;;;16.70;99.90;16.70;97020.00;;;;5056088;28;20263;-66
2021/08/18 07:45:48;;;;;;;9.60;3.87;;;16.70;99.90;16.70;97016.00;;;;5054531;28;20734;-67
2021/08/18 07:48:37;;;;;;;4.60;3.30;;;16.80;99.90;16.90;97016.00;;;;5056638;28;20214;-67
2021/08/18 07:51:26;;;;;;;9.53;3.93;;;16.90;99.90;17.20;97009.00;;;;5060502;28;20220;-67
2021/08/18 07:54:15;;;;;;;4.40;2.60;;;17.00;99.90;17.30;97009.00;;;;5049341;28;20207;-67
2021/08/18 07:57:04;;;;;;;5.37;2.90;;;17.10;99.90;17.30;97014.00;;;;5052539;28;20204;-67
2021/08/18 07:59:55;;;;;;;4.13;3.03;;;17.20;99.90;17.30;97010.00;;;;5052855;28;20216;-67
2021/08/18 08:02:45;;;;;;;4.73;2.87;;;17.30;99.90;17.50;97014.00;;;;5052237;28;20243;-67
2021/08/18 08:05:34;;;;;;;5.53;2.27;;;17.40;99.90;17.70;97007.00;;;;5047772;28;20204;-66
2021/08/18 08:08:24;;;;;;;4.67;2.10;;;17.60;99.90;18.20;97007.00;;;;5056951;28;20685;-67
2021/08/18 08:11:13;;;;;;;3.03;2.70;;;17.70;99.90;18.20;97010.00;;;;5045543;28;20231;-66
2021/08/18 08:14:02;;;;;;;1.97;1.80;;;17.90;99.90;18.40;97009.00;;;;5049463;28;20212;-67
2021/08/18 08:16:52;;;;;;;3.47;1.90;;;18.10;99.90;18.40;97005.00;;;;5050355;28;20200;-66
2021/08/18 08:19:41;;;;;;;2.93;2.47;;;18.30;99.90;18.70;97005.00;;;;5055913;28;20208;-66
2021/08/18 08:22:30;;;;;;;2.87;2.20;;;18.40;99.90;18.20;97011.00;;;;5058566;28;20235;-66
2021/08/18 08:25:19;;;;;;;3.37;2.27;;;18.70;99.90;18.70;97008.00;;;;5059261;28;20200;-65
2021/08/18 08:28:08;;;;;;;3.70;1.97;;;18.60;99.90;18.60;96992.00;;;;5054547;28;20207;-67
2021/08/18 08:30:57;;;;;;;3.20;2.77;;;18.60;99.90;19.10;97000.00;;;;5040019;28;20220;-64
2021/08/18 08:33:47;;;;;;;1.83;1.63;;;18.80;99.90;19.40;96999.00;;;;5043115;28;20276;-65
2021/08/18 08:36:36;;;;;;;4.03;2.30;;;19.00;99.90;19.60;97001.00;;;;5052608;28;20219;-66
2021/08/18 08:39:25;;;;;;;5.37;2.27;;;19.20;99.90;19.80;97006.00;;;;5048186;28;20200;-66
2021/08/18 08:42:16;;;;;;;3.70;1.90;;;19.50;99.90;19.80;96986.00;;;;5058827;28;20583;-66
2021/08/18 08:45:06;;;;;;;4.43;2.17;;;19.60;99.90;19.60;97003.00;;;;5063235;28;20195;-65
2021/08/18 08:47:55;;;;;;;2.70;2.23;;;19.70;99.90;20.20;96984.00;;;;5055959;28;20663;-68
2021/08/18 08:50:48;;;;;;;4.13;2.17;;;19.80;99.90;20.30;96988.00;;;;5064317;28;20207;-66
2021/08/18 08:53:37;;;;;;;3.13;2.67;;;20.00;99.90;20.30;96974.00;;;;5062921;28;20197;-65
2021/08/18 08:56:26;;;;;;;4.00;2.50;;;20.10;99.90;21.00;96972.00;;;;5062414;28;20203;-65
2021/08/18 08:59:15;;;;;;;2.97;2.23;;;20.40;99.90;21.20;96965.00;;;;5061285;28;20616;-65
2021/08/18 09:02:07;;;;;;;2.97;2.03;;;20.70;99.90;21.20;96975.00;;;;5053982;28;20607;-65
2021/08/18 09:04:56;;;;;;;2.57;2.20;;;20.90;99.90;20.90;96986.00;;;;5063945;28;20215;-65
2021/08/18 09:07:58;;;;;;;3.37;2.07;;;21.00;99.90;21.00;96984.00;;;;5062371;28;20562;-65
2021/08/18 09:11:07;;;;;;;2.27;1.77;;;21.00;99.90;20.30;97000.00;;;;5062067;28;20679;-65
2021/08/18 09:13:56;;;;;;;3.80;2.10;;;20.90;99.90;20.20;96978.00;;;;5066004;28;20206;-65
2021/08/18 09:16:45;;;;;;;5.80;2.30;;;20.70;99.90;20.50;96980.00;;;;5065315;28;20204;-65
2021/08/18 09:19:34;;;;;;;3.13;1.97;;;20.60;99.90;20.90;96969.00;;;;5071627;28;20200;-65
2021/08/18 09:22:23;;;;;;;3.73;2.23;;;20.80;99.90;20.50;96986.00;;;;5060183;28;20610;-67
2021/08/18 09:25:19;;;;;;;2.83;2.00;;;20.80;99.90;20.20;96974.00;;;;5059348;28;20208;-65
2021/08/18 09:28:22;;;;;;;2.43;1.50;;;20.70;98.80;20.70;96943.00;;;;5063012;28;20265;-66
2021/08/18 09:31:25;;;;;;;3.17;1.57;;;20.80;98.90;21.50;96959.00;;;;5057357;28;20224;-67
2021/08/18 09:34:14;;;;;;;3.43;2.33;;;21.10;99.90;21.80;96965.00;;;;5063119;28;20581;-65
2021/08/18 09:37:11;;;;;;;2.67;1.77;;;21.40;98.60;22.10;96975.00;;;;5061748;28;20218;-66
2021/08/18 09:40:01;;;;;;;2.27;1.87;;;21.60;99.00;22.20;96944.00;;;;5061355;28;20203;-66
2021/08/18 09:42:54;;;;;;;2.63;2.10;;;21.80;98.30;22.50;96979.00;;;;5046213;28;20323;-66
2021/08/18 09:45:44;;;;;;;2.97;1.87;;;22.00;97.30;22.40;96947.00;;;;5034039;28;20699;-65
2021/08/18 09:48:36;;;;;;;2.97;1.77;;;22.10;97.40;22.80;96953.00;;;;5044844;28;20209;-66
2021/08/18 09:51:24;;;;;;;5.93;2.13;;;22.40;97.60;23.00;96946.00;;;;5042354;28;20216;-66
2021/08/18 09:54:16;;;;;;;2.27;1.80;;;22.60;94.20;23.10;96940.00;;;;5045439;28;20286;-66
2021/08/18 09:57:09;;;;;;;2.53;1.70;;;22.80;92.80;21.60;96929.00;;;;5035372;28;20208;-66
2021/08/18 10:00:00;;;;;;;3.10;2.03;;;22.80;90.70;22.20;96935.00;;;;5043144;28;20563;-66
2021/08/18 10:02:50;;;;;;;1.87;1.70;;;22.60;90.30;23.20;96956.00;;;;5030668;28;20225;-66
2021/08/18 10:05:40;;;;;;;3.37;2.03;;;22.70;91.20;23.60;96924.00;;;;5037632;28;20200;-65
2021/08/18 10:08:30;;;;;;;1.57;1.43;;;22.90;90.80;24.50;96951.00;;;;5048842;28;20215;-66
2021/08/18 10:11:20;;;;;;;2.23;1.73;;;23.30;91.10;23.30;96952.00;;;;5042432;28;20225;-66
2021/08/18 10:14:11;;;;;;;1.93;1.73;;;23.40;83.20;22.40;96948.00;;;;5038956;28;20204;-66
2021/08/18 10:17:01;;;;;;;2.87;2.00;;;23.20;82.80;22.20;96956.00;;;;5033743;28;20287;-66
2021/08/18 10:19:53;;;;;;;2.23;1.77;;;22.80;84.30;21.40;96949.00;;;;5032561;28;20583;-66
2021/08/18 10:22:42;;;;;;;2.83;1.80;;;22.40;84.30;21.10;96908.00;;;;5029162;28;20234;-66
2021/08/18 10:25:46;;;;;;;2.50;1.70;;;21.90;86.00;21.50;96903.00;;;;5038865;28;20208;-66
2021/08/18 10:29:04;;;;;;;2.33;1.80;;;21.80;90.30;23.10;96898.00;;;;5032801;28;20596;-67
2021/08/18 10:31:58;;;;;;;2.27;1.90;;;22.20;93.50;24.10;96905.00;;;;5035240;28;20310;-66
2021/08/18 10:34:51;;;;;;;2.10;1.77;;;22.70;92.90;24.70;96904.00;;;;5045646;28;20205;-66
2021/08/18 10:37:40;;;;;;;2.53;1.57;;;23.30;92.50;24.70;96928.00;;;;5044190;28;20204;-66
2021/08/18 10:40:35;;;;;;;3.17;1.83;;;23.70;91.10;24.40;96896.00;;;;5043986;28;20207;-66
2021/08/18 10:44:01;;;;;;;2.57;2.37;;;24.00;90.00;25.40;96903.00;;;;5055149;28;20552;-65
2021/08/18 10:47:21;;;;;;;1.90;1.70;;;24.40;87.80;25.90;96896.00;;;;5080239;28;20246;-65
2021/08/18 10:50:42;;;;;;;2.97;2.00;;;24.90;85.40;26.30;96930.00;;;;5065912;28;20558;-66
2021/08/18 10:53:34;;;;;;;3.17;1.80;;;25.30;84.30;25.00;96921.00;;;;5065280;28;20650;-66
2021/08/18 10:56:45;;;;;;;2.63;1.90;;;25.20;80.70;24.10;96920.00;;;;5065510;28;20198;-66
2021/08/18 10:59:51;;;;;;;2.10;1.60;;;25.10;77.10;23.10;96863.00;;;;5066764;28;20202;-66
2021/08/18 11:02:52;;;;;;;2.33;1.97;;;24.50;75.30;22.70;96917.00;;;;5065845;28;20738;-66
2021/08/18 11:05:50;;;;;;;2.17;1.43;;;24.10;74.60;21.50;96922.00;;;;5044820;28;20225;-66
2021/08/18 11:08:43;;;;;;;3.03;1.93;;;23.50;73.40;21.90;96925.00;;;;5062622;28;20220;-66
2021/08/18 11:11:42;;;;;;;3.23;2.07;;;23.00;75.70;21.30;96924.00;;;;5047847;28;20231;-66
2021/08/18 11:14:36;;;;;;;1.80;1.43;;;22.40;76.40;21.30;96916.00;;;;5045805;28;20206;-66
2021/08/18 11:17:26;;;;;;;3.70;2.10;;;22.10;79.20;22.30;96915.00;;;;5045518;28;20212;-66
2021/08/18 11:20:20;;;;;;;2.60;1.70;;;22.10;79.10;21.80;96910.00;;;;5045064;28;20204;-66
2021/08/18 11:23:10;;;;;;;2.17;1.50;;;22.20;80.70;21.90;96874.00;;;;5044767;28;20239;-66
2021/08/18 11:26:06;;;;;;;2.33;1.50;;;22.10;80.90;21.80;96902.00;;;;5045148;28;20204;-67
2021/08/18 11:29:05;;;;;;;2.20;1.50;;;22.20;81.10;21.10;96910.00;;;;5045745;28;20196;-68
2021/08/18 11:31:55;;;;;;;1.97;1.47;;;21.80;81.80;20.80;96912.00;;;;5045747;28;20231;-67
2021/08/18 11:34:46;;;;;;;2.30;1.70;;;21.60;81.90;20.70;96892.00;;;;5045953;28;20279;-67
2021/08/18 11:37:35;;;;;;;4.40;2.33;;;21.30;84.40;20.90;96901.00;;;;5045585;28;20212;-66
2021/08/18 11:40:25;;;;;;;1.70;1.53;;;21.20;85.70;21.50;96846.00;;;;5045929;28;20193;-66
2021/08/18 11:43:14;;;;;;;4.20;1.67;;;21.40;86.30;23.00;96849.00;;;;5044031;28;20235;-65
2021/08/18 11:46:03;;;;;;;2.20;1.77;;;22.10;90.80;23.60;96844.00;;;;5039797;28;20196;-67
2021/08/18 11:48:52;;;;;;;2.23;2.03;;;22.80;88.50;22.90;96840.00;;;;5065530;28;20204;-67
2021/08/18 11:51:41;;;;;;;3.10;2.80;;;23.00;84.20;22.70;96887.00;;;;5039462;28;20221;-68
2021/08/18 11:54:30;;;;;;;2.60;1.93;;;23.10;83.20;22.50;96834.00;;;;5044037;28;20197;-66
2021/08/18 11:57:21;;;;;;;2.97;1.83;;;23.00;82.50;23.50;96819.00;;;;5044948;28;20204;-65
2021/08/18 12:00:14;;;;;;;2.70;1.53;;;23.30;81.50;23.00;96891.00;;;;5044166;28;20204;-66
2021/08/18 12:03:03;;;;;;;1.87;1.60;;;23.40;81.40;23.10;96889.00;;;;5045029;28;20294;-65
2021/08/18 12:06:03;;;;;;;3.80;1.80;;;23.30;81.70;23.40;96897.00;;;;5044423;28;20660;-67
2021/08/18 12:08:52;;;;;;;3.93;1.80;;;23.40;84.40;22.40;96879.00;;;;5044396;28;20204;-67
2021/08/18 12:11:42;;;;;;;2.13;1.83;;;23.20;80.20;23.80;96846.00;;;;5063802;28;20224;-66
2021/08/18 12:14:39;;;;;;;4.00;1.90;;;23.40;83.20;25.80;96878.00;;;;5064266;28;20188;-65
2021/08/18 12:17:39;;;;;;;3.10;2.23;;;24.00;86.60;25.00;96830.00;;;;5069193;28;20197;-66
2021/08/18 12:20:30;;;;;;;5.47;2.90;;;24.40;80.10;26.40;96832.00;;;;5069584;28;20226;-67
2021/08/18 12:23:25;;;;;;;3.20;2.50;;;25.20;82.50;27.60;96843.00;;;;5068503;28;20230;-67
2021/08/18 12:26:29;;;;;;;1.33;1.23;;;25.70;81.40;28.50;96829.00;;;;5068891;28;20225;-66
2021/08/18 12:29:20;;;;;;;2.43;1.57;;;26.60;81.80;26.90;96838.00;;;;5068789;28;20200;-65
2021/08/18 12:32:12;;;;;;;2.43;2.00;;;26.90;73.30;26.30;96836.00;;;;5068590;28;20217;-66
2021/08/18 12:35:04;;;;;;;3.10;2.07;;;26.90;72.40;26.90;96819.00;;;;5068514;28;20198;-67
2021/08/18 12:37:54;;;;;;;2.00;1.40;;;27.10;71.70;26.60;96809.00;;;;5063576;28;20199;-67
2021/08/18 12:40:42;;;;;;;2.70;1.80;;;26.90;72.50;24.60;96845.00;;;;5068457;28;20209;-66